Time;durP1;ratioP1;P1;durP2;ratioP2;P2;SDS_P1;SDS_P2;PMS_P1;PMS_P2;Temp;Humidity;BMP_temperature;BMP_pressure;BME280_temperature;BME280_humidity;BME280_pressure;Samples;Min_cycle;Max_cycle;Signal;HPM_P1;HPM_P2
2022/04/20 00:01:56;;;;;;;14.73;8.35;;;;;;;10.86;68.58;101732.31;5074917;28;20033;-85
2022/04/20 00:04:21;;;;;;;13.55;8.45;;;;;;;10.84;68.81;101731.50;5058051;28;20033;-85
2022/04/20 00:06:47;;;;;;;15.93;8.75;;;;;;;10.85;68.69;101735.81;5059911;28;20412;-85
2022/04/20 00:09:12;;;;;;;15.00;8.43;;;;;;;10.78;68.86;101734.25;5057917;28;20028;-85
2022/04/20 00:11:37;;;;;;;13.82;8.52;;;;;;;10.73;68.98;101725.66;5041466;28;20359;-84
2022/04/20 00:14:03;;;;;;;13.13;8.20;;;;;;;10.72;68.84;101723.97;5056795;28;20102;-85
2022/04/20 00:16:28;;;;;;;13.48;8.70;;;;;;;10.70;69.05;101723.16;5022893;28;20082;-85
2022/04/20 00:18:54;;;;;;;13.05;8.27;;;;;;;10.63;69.10;101726.84;5052223;28;20037;-85
2022/04/20 00:21:19;;;;;;;12.75;7.47;;;;;;;10.64;69.10;101728.53;5036033;28;20402;-85
2022/04/20 00:23:44;;;;;;;14.52;8.52;;;;;;;10.60;69.31;101724.28;5042248;28;20037;-85
2022/04/20 00:26:10;;;;;;;11.50;8.18;;;;;;;10.53;69.38;101732.31;5042249;28;20040;-85
2022/04/20 00:28:35;;;;;;;11.23;7.45;;;;;;;10.53;69.43;101728.81;5041416;28;20032;-85
2022/04/20 00:31:01;;;;;;;11.70;8.05;;;;;;;10.54;69.32;101738.41;5059607;28;20386;-85
2022/04/20 00:33:26;;;;;;;11.93;8.75;;;;;;;10.50;69.41;101732.38;5059179;28;20048;-85
2022/04/20 00:35:51;;;;;;;8.68;7.40;;;;;;;10.53;69.55;101741.91;5058653;28;20106;-85
2022/04/20 00:38:18;;;;;;;10.10;7.75;;;;;;;10.45;69.57;101739.50;5059281;28;20040;-85
2022/04/20 00:40:47;;;;;;;13.88;8.25;;;;;;;10.45;69.50;101742.13;5058741;28;20092;-85
2022/04/20 00:43:13;;;;;;;20.92;7.60;;;;;;;10.40;69.64;101741.38;5059537;28;20382;-85
2022/04/20 00:45:41;;;;;;;15.50;8.15;;;;;;;10.39;69.50;101739.66;5060340;28;20040;-85
2022/04/20 00:48:09;;;;;;;9.23;7.97;;;;;;;10.38;69.65;101741.41;5059730;28;20043;-85
2022/04/20 00:50:35;;;;;;;8.20;7.22;;;;;;;10.36;69.54;101739.75;5056765;28;20292;-85
2022/04/20 00:53:00;;;;;;;9.23;7.00;;;;;;;10.35;69.43;101749.38;5057833;28;20037;-85
2022/04/20 00:55:26;;;;;;;11.23;7.70;;;;;;;10.35;69.55;101745.84;5041316;28;20052;-85
2022/04/20 00:57:51;;;;;;;13.57;7.53;;;;;;;10.29;69.83;101751.22;5058213;28;20104;-85
2022/04/20 01:00:17;;;;;;;8.70;7.03;;;;;;;10.25;69.73;101749.59;5057802;28;20263;-85
2022/04/20 01:02:42;;;;;;;9.82;7.45;;;;;;;10.30;69.47;101750.34;5058109;28;20068;-85
2022/04/20 01:05:08;;;;;;;8.98;7.03;;;;;;;10.31;69.49;101752.94;5059644;28;20056;-85
2022/04/20 01:07:36;;;;;;;10.77;7.15;;;;;;;10.30;69.41;101760.81;5058718;28;20383;-85
2022/04/20 01:10:02;;;;;;;10.48;7.55;;;;;;;10.26;69.72;101760.03;5059432;28;20099;-85
2022/04/20 01:12:28;;;;;;;12.02;7.40;;;;;;;10.26;69.38;101753.91;5057073;28;20075;-85
2022/04/20 01:14:54;;;;;;;9.32;7.18;;;;;;;10.26;69.60;101752.19;5058794;28;20037;-85
2022/04/20 01:17:19;;;;;;;8.25;6.85;;;;;;;10.28;69.47;101757.38;5057427;28;20359;-85
2022/04/20 01:19:45;;;;;;;12.52;6.97;;;;;;;10.29;69.51;101748.59;5059310;28;20048;-85
2022/04/20 01:22:11;;;;;;;10.85;7.15;;;;;;;10.29;69.48;101754.69;5041323;28;20028;-85
2022/04/20 01:24:37;;;;;;;9.57;6.95;;;;;;;10.27;69.39;101751.25;5040701;28;20043;-85
2022/04/20 01:27:04;;;;;;;10.77;7.40;;;;;;;10.24;69.77;101748.75;5058879;28;20035;-85
2022/04/20 01:29:30;;;;;;;9.95;7.30;;;;;;;10.23;69.42;101747.00;5073564;28;20037;-85
2022/04/20 01:31:56;;;;;;;10.38;7.68;;;;;;;10.24;69.48;101750.47;5074231;28;20100;-85
2022/04/20 01:34:22;;;;;;;9.93;6.95;;;;;;;10.18;69.42;101748.88;5058266;28;20208;-85
2022/04/20 01:36:47;;;;;;;8.23;7.00;;;;;;;10.16;69.70;101745.44;5076329;28;20195;-85
2022/04/20 01:39:13;;;;;;;10.20;7.25;;;;;;;10.09;69.86;101751.72;5078811;28;20308;-85
2022/04/20 01:41:39;;;;;;;8.68;6.45;;;;;;;10.09;69.84;101747.34;5061277;28;20044;-85
2022/04/20 01:44:04;;;;;;;9.60;6.80;;;;;;;10.10;69.77;101749.06;5078630;28;20355;-85
2022/04/20 01:46:30;;;;;;;8.82;6.95;;;;;;;10.08;69.34;101753.47;5059981;28;20028;-85
2022/04/20 01:48:55;;;;;;;13.52;6.72;;;;;;;10.05;69.49;101748.31;5061268;28;20035;-85
2022/04/20 01:54:05;;;;;;;11.57;7.20;;;;;;;9.95;69.81;101738.94;5047110;28;20334;-85
2022/04/20 01:56:30;;;;;;;7.53;6.72;;;;;;;9.95;69.60;101746.81;5077833;28;20036;-85
2022/04/20 01:58:56;;;;;;;8.68;7.13;;;;;;;9.89;69.90;101749.56;5060550;28;20032;-85
2022/04/20 02:04:06;;;;;;;9.60;7.43;;;;;;;9.83;70.02;101741.88;5063488;28;20115;-85
2022/04/20 02:06:32;;;;;;;8.48;6.72;;;;;;;9.86;69.92;101747.00;5077926;28;20373;-82
2022/04/20 02:08:57;;;;;;;7.50;6.60;;;;;;;9.84;70.06;101748.81;5078400;28;20336;-82
2022/04/20 02:11:23;;;;;;;8.70;6.80;;;;;;;9.80;70.21;101746.28;5078961;28;20036;-84
2022/04/20 02:13:48;;;;;;;7.75;6.05;;;;;;;9.76;70.22;101744.63;5060481;28;20352;-84
2022/04/20 02:16:13;;;;;;;8.10;6.53;;;;;;;9.80;69.92;101743.66;5071832;28;20123;-85
2022/04/20 02:18:39;;;;;;;7.30;6.22;;;;;;;9.78;70.13;101737.59;5060912;28;20043;-84
2022/04/20 02:21:04;;;;;;;8.77;6.47;;;;;;;9.76;70.06;101738.53;5058542;28;20371;-85
2022/04/20 02:23:30;;;;;;;9.70;6.75;;;;;;;9.77;70.17;101735.03;5055114;28;20393;-84
2022/04/20 02:25:55;;;;;;;10.00;6.65;;;;;;;9.82;69.79;101737.53;5078527;28;20063;-84
2022/04/20 02:28:21;;;;;;;7.25;6.53;;;;;;;9.80;69.70;101741.06;5078107;28;20365;-85
2022/04/20 02:30:46;;;;;;;8.70;6.13;;;;;;;9.80;69.54;101743.66;5078284;28;20051;-85
2022/04/20 02:33:12;;;;;;;8.23;6.35;;;;;;;9.82;69.76;101735.75;5060432;28;20024;-85
2022/04/20 02:35:40;;;;;;;10.60;6.47;;;;;;;9.78;69.87;101732.34;5044130;28;20044;-85
2022/04/20 02:38:07;;;;;;;9.13;6.80;;;;;;;9.77;69.66;101735.03;5078542;28;20048;-84
2022/04/20 02:40:32;;;;;;;9.85;6.22;;;;;;;9.74;69.19;101730.72;5059517;28;20036;-84
2022/04/20 02:42:58;;;;;;;10.50;6.03;;;;;;;9.75;69.54;101736.78;5078462;28;20039;-84
2022/04/20 02:45:23;;;;;;;8.25;5.68;;;;;;;9.75;69.23;101734.19;5042977;28;20020;-85
2022/04/20 02:47:49;;;;;;;7.20;6.07;;;;;;;9.74;69.57;101737.72;5078545;28;20036;-85
2022/04/20 02:50:14;;;;;;;7.55;6.15;;;;;;;9.76;69.34;101730.69;5060034;28;20028;-85
2022/04/20 02:52:40;;;;;;;9.75;6.10;;;;;;;9.75;69.21;101739.41;5078550;28;20091;-85
2022/04/20 02:55:05;;;;;;;7.63;6.10;;;;;;;9.78;68.92;101734.97;5078406;28;20038;-85
2022/04/20 02:57:31;;;;;;;7.78;6.78;;;;;;;9.70;69.10;101741.31;5077803;28;20067;-84
2022/04/20 02:59:56;;;;;;;8.85;6.53;;;;;;;9.71;69.09;101745.63;5078246;28;20131;-84
2022/04/20 03:02:22;;;;;;;7.95;5.80;;;;;;;9.68;69.00;101749.19;5060202;28;20435;-84
2022/04/20 03:04:47;;;;;;;9.77;6.00;;;;;;;9.62;69.10;101749.28;5078362;28;20059;-85
2022/04/20 03:07:13;;;;;;;6.78;6.07;;;;;;;9.58;69.08;101755.50;5060552;28;20050;-85
2022/04/20 03:09:38;;;;;;;7.93;5.47;;;;;;;9.64;68.93;101757.09;5043710;28;20028;-85
2022/04/20 03:12:06;;;;;;;8.45;5.85;;;;;;;9.66;69.02;101753.59;5078367;28;20166;-85
2022/04/20 03:14:32;;;;;;;10.55;6.05;;;;;;;9.65;68.83;101759.69;5061714;28;20416;-84
2022/04/20 03:16:57;;;;;;;6.57;5.50;;;;;;;9.71;68.70;101753.47;5031163;28;20039;-85
2022/04/20 03:19:23;;;;;;;6.45;5.38;;;;;;;9.71;68.52;101750.84;5047336;28;20031;-85
2022/04/20 03:21:48;;;;;;;8.32;6.07;;;;;;;9.62;68.52;101754.53;5047841;28;20245;-84
2022/04/20 03:24:13;;;;;;;7.65;5.68;;;;;;;9.60;68.44;101754.59;5082062;28;20287;-85
2022/04/20 03:26:39;;;;;;;9.32;6.43;;;;;;;9.52;68.62;101756.50;5081660;28;20040;-85
2022/04/20 03:29:05;;;;;;;7.63;5.53;;;;;;;9.52;68.34;101764.34;5064488;28;20032;-84
2022/04/20 03:31:32;;;;;;;8.93;5.70;;;;;;;9.50;68.66;101763.50;5080990;28;20033;-85
2022/04/20 03:33:58;;;;;;;8.02;5.82;;;;;;;9.46;68.70;101758.38;5063785;28;20315;-85
2022/04/20 03:36:23;;;;;;;8.65;6.43;;;;;;;9.48;68.77;101761.81;5046898;28;20059;-85
2022/04/20 03:38:49;;;;;;;8.27;6.00;;;;;;;9.40;68.48;101760.25;5064154;28;20036;-85
2022/04/20 03:41:14;;;;;;;11.52;6.63;;;;;;;9.41;68.72;101764.56;5030617;28;20032;-84
2022/04/20 03:43:40;;;;;;;5.63;5.03;;;;;;;9.43;68.84;101771.53;5047070;28;20078;-85
2022/04/20 03:46:05;;;;;;;7.70;5.97;;;;;;;9.42;68.44;101773.25;5064065;28;20375;-84
2022/04/20 03:48:31;;;;;;;8.55;5.70;;;;;;;9.43;68.40;101768.91;5080791;28;20025;-84
2022/04/20 03:50:56;;;;;;;6.80;6.10;;;;;;;9.42;68.23;101773.25;5063501;28;20032;-84
2022/04/20 03:53:21;;;;;;;6.35;5.63;;;;;;;9.42;68.41;101773.25;5062642;28;20037;-85
2022/04/20 03:55:47;;;;;;;8.05;6.03;;;;;;;9.40;67.69;101767.19;5063416;28;20039;-85
2022/04/20 03:58:12;;;;;;;8.93;5.80;;;;;;;9.40;68.03;101773.31;5062895;28;20025;-84
2022/04/20 04:00:38;;;;;;;7.40;5.70;;;;;;;9.40;67.81;101775.94;5081067;28;20359;-84
2022/04/20 04:03:03;;;;;;;6.20;5.45;;;;;;;9.40;68.04;101773.31;5063165;28;20125;-84
2022/04/20 04:05:28;;;;;;;7.10;4.70;;;;;;;9.45;67.86;101775.81;5062517;28;20036;-85
2022/04/20 04:07:54;;;;;;;5.90;5.28;;;;;;;9.44;67.57;101774.13;5080905;28;20036;-84
2022/04/20 04:10:19;;;;;;;6.35;5.40;;;;;;;9.39;67.99;101778.56;5046130;28;20029;-84
2022/04/20 04:12:45;;;;;;;6.50;5.50;;;;;;;9.34;67.99;101780.41;5063234;28;20036;-85
2022/04/20 04:15:11;;;;;;;5.75;5.15;;;;;;;9.38;67.69;101776.84;5062860;28;20073;-85
2022/04/20 04:17:36;;;;;;;5.53;4.97;;;;;;;9.33;67.64;101771.72;5080640;28;20044;-84
2022/04/20 04:20:02;;;;;;;6.53;5.93;;;;;;;9.27;67.60;101776.19;5062899;28;20216;-84
2022/04/20 04:22:28;;;;;;;9.18;6.03;;;;;;;9.21;67.82;101780.66;5062630;28;20254;-84
2022/04/20 04:24:53;;;;;;;6.45;5.78;;;;;;;9.16;67.72;101776.41;5044758;28;20491;-84
2022/04/20 04:27:21;;;;;;;6.95;5.25;;;;;;;9.18;67.83;101779.84;5025669;28;20294;-85
2022/04/20 04:29:46;;;;;;;6.25;5.60;;;;;;;9.13;67.91;101781.69;5025296;28;20041;-85
2022/04/20 04:32:12;;;;;;;7.80;5.25;;;;;;;9.03;68.14;101778.41;5059598;28;20099;-85
2022/04/20 04:34:39;;;;;;;6.95;5.70;;;;;;;9.00;68.41;101779.34;5041306;28;20086;-84
2022/04/20 04:37:05;;;;;;;8.27;5.70;;;;;;;8.93;68.48;101777.72;5047993;28;20063;-84
2022/04/20 04:39:30;;;;;;;5.78;5.18;;;;;;;8.92;68.32;101780.38;5058877;28;20036;-85
2022/04/20 04:42:02;;;;;;;6.32;5.07;;;;;;;8.91;68.57;101782.09;5078085;28;20347;-84
2022/04/20 04:44:28;;;;;;;8.15;5.07;;;;;;;8.96;68.33;101789.84;5046764;28;20028;-84
2022/04/20 04:49:39;;;;;;;4.78;3.88;;;;;;;9.10;67.90;101792.22;5068898;28;20255;-85
2022/04/20 04:52:10;;;;;;;4.90;4.13;;;;;;;9.15;67.76;101798.19;5067133;28;20048;-85
2022/04/20 04:54:37;;;;;;;3.80;3.50;;;;;;;9.21;67.42;101796.34;5064762;28;20078;-84
2022/04/20 04:57:02;;;;;;;5.32;4.07;;;;;;;9.25;67.35;101797.13;5080205;28;20036;-85
2022/04/20 04:59:27;;;;;;;4.60;3.67;;;;;;;9.28;67.11;101798.81;5079630;28;20050;-84
2022/04/20 05:01:53;;;;;;;4.28;3.88;;;;;;;9.29;67.16;101803.16;5061571;28;20058;-84
2022/04/20 05:04:19;;;;;;;4.63;4.20;;;;;;;9.31;67.01;101807.47;5045130;28;20057;-85
2022/04/20 05:06:44;;;;;;;6.25;4.85;;;;;;;9.31;66.85;101812.69;5045548;28;20033;-85
2022/04/20 05:09:10;;;;;;;7.10;5.28;;;;;;;9.28;67.41;101807.53;5079788;28;20047;-84
2022/04/20 05:11:35;;;;;;;6.20;5.15;;;;;;;9.21;67.19;101813.78;5055023;28;20063;-85
2022/04/20 05:14:01;;;;;;;5.20;4.70;;;;;;;9.13;67.07;101811.31;5061342;28;20358;-85
2022/04/20 05:16:26;;;;;;;5.28;4.78;;;;;;;9.11;67.43;101812.22;5060681;28;20247;-85
2022/04/20 05:18:52;;;;;;;6.70;5.20;;;;;;;9.01;67.52;101814.16;5088286;28;20040;-85
2022/04/20 05:21:18;;;;;;;6.38;5.30;;;;;;;9.01;67.83;101808.94;5073237;28;20028;-85
2022/04/20 05:23:43;;;;;;;6.00;4.90;;;;;;;8.97;68.15;101818.56;5077369;28;20039;-85
2022/04/20 05:26:09;;;;;;;7.50;5.30;;;;;;;8.96;68.11;101823.81;5043559;28;20025;-86
2022/04/20 05:28:34;;;;;;;9.40;5.10;;;;;;;8.93;68.39;101819.53;5076414;28;20058;-85
2022/04/20 05:31:00;;;;;;;9.05;5.47;;;;;;;8.86;68.47;101820.53;5094611;28;20032;-85
2022/04/20 05:33:25;;;;;;;8.98;5.45;;;;;;;8.81;68.72;101817.13;5076204;28;20017;-84
2022/04/20 05:35:50;;;;;;;8.70;5.00;;;;;;;8.79;68.55;101818.91;5072964;28;20037;-85
2022/04/20 05:43:44;;;;;;;8.00;5.05;;;;;;;8.67;68.55;101824.34;5073455;28;20072;-85
2022/04/20 05:46:09;;;;;;;6.45;4.80;;;;;;;8.65;68.41;101826.97;5073671;28;20049;-85
2022/04/20 05:48:35;;;;;;;5.65;5.00;;;;;;;8.63;68.32;101829.59;5072320;28;20084;-85
2022/04/20 05:51:01;;;;;;;9.75;4.93;;;;;;;8.60;68.04;101819.22;5072274;28;20056;-84
2022/04/20 05:53:27;;;;;;;6.63;5.07;;;;;;;8.58;68.19;101818.38;5061517;28;20033;-85
2022/04/20 05:55:52;;;;;;;8.48;4.50;;;;;;;8.58;67.81;101826.19;5053896;28;20100;-85
2022/04/20 05:58:18;;;;;;;8.15;4.78;;;;;;;8.54;67.79;101824.53;5073139;28;20021;-85
2022/04/20 06:00:43;;;;;;;6.00;4.60;;;;;;;8.55;68.16;101823.66;5069438;28;20090;-85
2022/04/20 06:03:08;;;;;;;5.15;4.43;;;;;;;8.58;67.45;101826.19;5059102;28;20317;-84
2022/04/20 06:05:34;;;;;;;5.10;4.30;;;;;;;8.59;67.69;101830.56;5057645;28;20033;-84
2022/04/20 06:07:59;;;;;;;6.93;4.68;;;;;;;8.65;67.31;101832.19;5059424;28;20048;-84
2022/04/20 06:10:25;;;;;;;9.55;5.10;;;;;;;8.63;67.26;101833.97;5057860;28;20340;-85
2022/04/20 06:12:51;;;;;;;4.55;3.97;;;;;;;8.67;66.63;101837.41;5058882;28;20151;-85
2022/04/20 06:15:17;;;;;;;5.38;4.63;;;;;;;8.70;66.76;101837.34;5057231;28;20225;-85
2022/04/20 06:17:43;;;;;;;4.75;4.30;;;;;;;8.75;66.08;101841.63;5057654;28;20037;-85
2022/04/20 06:20:09;;;;;;;6.80;4.10;;;;;;;8.77;66.15;101832.00;5057566;28;20096;-85
2022/04/20 06:22:34;;;;;;;8.98;3.95;;;;;;;8.81;65.60;101835.41;5057247;28;20029;-85
2022/04/20 06:24:59;;;;;;;10.82;4.30;;;;;;;8.84;65.48;101835.34;5057582;28;20029;-84
2022/04/20 06:27:31;;;;;;;6.32;3.70;;;;;;;8.86;64.84;101835.31;5023897;28;20048;-85
2022/04/20 06:29:57;;;;;;;7.75;3.80;;;;;;;8.87;64.43;101835.28;5049433;28;20045;-85
2022/04/20 06:32:27;;;;;;;6.68;4.18;;;;;;;8.88;64.95;101834.41;5053580;28;20067;-84
2022/04/20 06:34:52;;;;;;;5.00;4.38;;;;;;;8.92;64.51;101841.31;5053548;28;20233;-84
2022/04/20 06:37:19;;;;;;;6.18;3.75;;;;;;;8.98;63.56;101840.34;5039404;28;20041;-85
2022/04/20 06:39:45;;;;;;;4.30;3.72;;;;;;;8.98;63.30;101841.19;5039945;28;20360;-85
2022/04/20 06:42:10;;;;;;;7.95;3.90;;;;;;;9.05;63.84;101841.94;5039909;28;20029;-84
2022/04/20 06:44:36;;;;;;;5.28;3.95;;;;;;;9.08;64.14;101839.28;5057180;28;20221;-84
2022/04/20 06:47:02;;;;;;;8.43;4.10;;;;;;;9.12;63.07;101845.31;5057147;28;20074;-85
2022/04/20 06:49:27;;;;;;;4.28;3.85;;;;;;;9.14;63.03;101841.78;5047209;28;20037;-85
2022/04/20 07:00:06;;;;;;;9.00;4.32;;;;;;;9.27;62.13;101846.78;5056020;28;20311;-85
2022/04/20 07:02:32;;;;;;;4.93;3.60;;;;;;;9.30;61.91;101837.13;5055790;28;20100;-85
2022/04/20 07:04:57;;;;;;;5.63;4.13;;;;;;;9.33;62.21;101846.66;5054800;28;20206;-84
2022/04/20 07:07:22;;;;;;;14.82;3.92;;;;;;;9.36;62.39;101852.69;5050022;28;20033;-85
2022/04/20 07:09:48;;;;;;;4.00;3.70;;;;;;;9.43;61.97;101847.34;5050509;28;20928;-85
2022/04/20 07:12:14;;;;;;;8.90;4.47;;;;;;;9.45;62.04;101850.78;5039732;28;20104;-85
2022/04/20 07:14:39;;;;;;;9.13;3.83;;;;;;;9.46;61.99;101856.00;5055811;28;20283;-84
2022/04/20 07:17:06;;;;;;;3.60;3.30;;;;;;;9.48;62.02;101853.31;5055751;28;20114;-84
2022/04/20 07:19:31;;;;;;;4.60;4.13;;;;;;;9.57;61.92;101853.16;5056144;28;20115;-84
2022/04/20 07:21:57;;;;;;;3.92;3.63;;;;;;;9.59;61.73;101859.22;5039054;28;20344;-84
2022/04/20 07:24:22;;;;;;;3.70;3.40;;;;;;;9.63;61.31;101860.88;5057502;28;20041;-84
2022/04/20 07:26:47;;;;;;;7.28;3.92;;;;;;;9.66;61.28;101857.31;5039742;28;20040;-84
2022/04/20 07:29:13;;;;;;;3.80;3.50;;;;;;;9.67;61.32;101865.16;5023377;28;20042;-84
2022/04/20 07:31:38;;;;;;;6.97;3.40;;;;;;;9.74;61.19;101868.50;5053846;28;20029;-84
2022/04/20 07:34:04;;;;;;;4.05;3.55;;;;;;;9.78;60.94;101863.16;5056483;28;20041;-84
2022/04/20 07:36:29;;;;;;;5.53;3.60;;;;;;;9.83;60.96;101859.59;5057353;28;20084;-84
2022/04/20 07:38:55;;;;;;;3.92;3.15;;;;;;;9.91;60.93;101861.13;5041503;28;20040;-84
2022/04/20 07:41:20;;;;;;;3.85;3.50;;;;;;;9.96;60.84;101866.28;5056832;28;20246;-84
2022/04/20 07:43:46;;;;;;;6.50;3.30;;;;;;;10.04;60.79;101866.13;5057945;28;20033;-84
2022/04/20 07:46:13;;;;;;;4.10;3.80;;;;;;;10.10;60.71;101860.75;5057956;28;20162;-84
2022/04/20 07:48:39;;;;;;;4.45;3.15;;;;;;;10.14;60.18;101863.25;5057272;28;20547;-84
2022/04/20 07:51:05;;;;;;;3.88;3.58;;;;;;;10.19;59.61;101865.78;5057112;28;20029;-84
2022/04/20 07:53:31;;;;;;;4.28;3.70;;;;;;;10.22;60.18;101859.59;5056651;28;20376;-84
2022/04/20 07:55:56;;;;;;;3.63;3.30;;;;;;;10.25;59.92;101864.78;5053497;28;20116;-85
2022/04/20 07:58:22;;;;;;;4.35;3.40;;;;;;;10.31;59.76;101856.81;5057859;28;20107;-84
2022/04/20 08:00:49;;;;;;;4.53;2.83;;;;;;;10.34;59.55;101860.22;5052678;28;20407;-84
2022/04/20 08:03:18;;;;;;;4.03;3.42;;;;;;;10.38;59.56;101861.84;5048561;28;20057;-84
2022/04/20 08:05:55;;;;;;;4.88;3.17;;;;;;;10.45;59.34;101861.72;5060739;28;20154;-84
2022/04/20 08:08:22;;;;;;;4.22;3.42;;;;;;;10.50;59.71;101859.88;5061378;28;20020;-84
2022/04/20 08:10:48;;;;;;;3.60;3.30;;;;;;;10.54;58.97;101864.97;5055031;28;20064;-84
2022/04/20 08:15:58;;;;;;;7.93;4.80;;;;;;;10.63;58.72;101863.91;5056840;28;20104;-84
2022/04/20 08:18:25;;;;;;;6.75;3.85;;;;;;;10.68;58.98;101867.28;5057251;28;20041;-84
2022/04/20 08:20:50;;;;;;;4.50;3.50;;;;;;;10.74;59.15;101859.25;5044622;28;20024;-84
2022/04/20 08:23:16;;;;;;;4.50;3.15;;;;;;;10.88;59.41;101871.16;5047283;28;20067;-84
2022/04/20 08:25:42;;;;;;;3.75;3.45;;;;;;;10.91;58.77;101865.81;5053440;28;20041;-84
2022/04/20 08:28:09;;;;;;;3.22;3.00;;;;;;;11.02;58.65;101868.16;5047595;28;20060;-84
2022/04/20 08:30:36;;;;;;;2.78;2.58;;;;;;;11.11;58.25;101867.94;5056047;28;20288;-84
2022/04/20 08:33:02;;;;;;;8.68;3.05;;;;;;;11.20;57.90;101869.44;5055343;28;20096;-84
2022/04/20 08:35:27;;;;;;;4.97;3.20;;;;;;;11.27;58.02;101868.38;5056568;28;20045;-85
2022/04/20 08:37:53;;;;;;;4.50;3.40;;;;;;;11.30;57.11;101874.41;5059228;28;20107;-85
2022/04/20 08:40:18;;;;;;;3.97;3.25;;;;;;;11.31;57.27;101872.63;5030355;28;20020;-84
2022/04/20 08:42:45;;;;;;;3.30;3.00;;;;;;;11.38;56.64;101874.19;5046099;28;20097;-84
2022/04/20 08:45:13;;;;;;;3.30;3.00;;;;;;;11.41;55.87;101870.63;5073433;28;20300;-84
2022/04/20 08:47:39;;;;;;;5.93;3.60;;;;;;;11.49;56.21;101868.66;5076079;28;20040;-85
2022/04/20 08:50:07;;;;;;;5.78;3.10;;;;;;;11.53;55.67;101862.41;5050765;28;20020;-84
2022/04/20 08:52:39;;;;;;;3.83;3.40;;;;;;;11.56;55.86;101871.97;5073330;28;20039;-85
2022/04/20 08:55:13;;;;;;;3.72;3.40;;;;;;;11.60;56.50;101870.97;5056711;28;20039;-85
2022/04/20 08:57:40;;;;;;;4.50;3.15;;;;;;;11.64;55.05;101864.72;5074284;28;20346;-85
2022/04/20 09:00:11;;;;;;;3.22;3.00;;;;;;;11.70;54.70;101872.44;5059214;28;20013;-85
2022/04/20 09:02:37;;;;;;;6.75;3.13;;;;;;;11.75;55.41;101869.66;5055214;28;20147;-84
2022/04/20 09:05:04;;;;;;;3.95;2.90;;;;;;;11.79;54.73;101863.41;5034927;28;20378;-85
2022/04/20 09:07:33;;;;;;;3.88;3.50;;;;;;;11.85;53.26;101868.50;5049383;28;20371;-85
2022/04/20 09:09:58;;;;;;;;;;;;;;;11.92;53.87;101867.44;5068153;28;20241;-84
2022/04/20 09:12:25;;;;;;;3.30;2.83;;;;;;;11.97;54.06;101859.41;5052949;28;19939;-84
2022/04/20 09:14:52;;;;;;;17.27;3.10;;;;;;;12.07;54.43;101856.47;5056567;28;20032;-84
2022/04/20 09:17:19;;;;;;;7.53;3.83;;;;;;;12.18;55.20;101856.13;5068356;28;20320;-84
2022/04/20 09:19:48;;;;;;;5.18;3.55;;;;;;;12.33;53.65;101852.16;5045837;28;20040;-85
2022/04/20 09:22:18;;;;;;;;;;;;;;;12.38;53.18;101852.88;5060730;28;20064;-85
2022/04/20 09:24:59;;;;;;;6.00;3.55;;;;;;;12.46;52.10;101856.13;5071805;28;20077;-84
2022/04/20 09:27:30;;;;;;;7.80;3.50;;;;;;;12.47;51.14;101849.94;5051519;28;20221;-85
2022/04/20 09:29:56;;;;;;;4.30;3.40;;;;;;;12.49;52.10;101853.38;5054290;28;20429;-85
2022/04/20 09:32:40;;;;;;;7.18;3.65;;;;;;;12.58;52.07;101856.63;5075260;28;20060;-84
2022/04/20 09:35:08;;;;;;;7.85;3.08;;;;;;;12.64;52.03;101854.69;5061077;28;20039;-85
2022/04/20 09:37:36;;;;;;;12.43;3.42;;;;;;;12.73;52.65;101850.00;5076621;28;20348;-84
2022/04/20 09:40:06;;;;;;;7.10;3.70;;;;;;;12.80;53.03;101851.53;5078563;28;20366;-85
2022/04/20 09:42:34;;;;;;;4.78;3.42;;;;;;;12.93;52.22;101850.19;5051350;28;20021;-85
2022/04/20 09:45:06;;;;;;;9.13;2.88;;;;;;;13.01;52.92;101845.53;5057322;28;20049;-85
2022/04/20 09:50:30;;;;;;;13.27;4.10;;;;;;;13.01;52.65;101842.91;5075731;28;20055;-85
2022/04/20 09:52:59;;;;;;;5.80;3.63;;;;;;;13.06;52.81;101840.09;5074514;28;20071;-85
2022/04/20 09:55:32;;;;;;;6.75;3.13;;;;;;;13.06;52.43;101842.72;5052352;28;20340;-85
2022/04/20 09:58:21;;;;;;;9.65;3.47;;;;;;;13.08;51.89;101843.56;5060879;28;20024;-85
2022/04/20 10:00:53;;;;;;;4.65;2.95;;;;;;;13.13;51.27;101846.00;5078104;28;20063;-85
2022/04/20 10:03:26;;;;;;;7.78;3.47;;;;;;;13.15;51.50;101839.78;5067195;28;20060;-85
2022/04/20 10:05:52;;;;;;;5.28;3.03;;;;;;;13.26;51.70;101826.22;5048789;28;20045;-85
2022/04/20 10:08:19;;;;;;;4.43;2.83;;;;;;;13.37;50.73;101837.28;5054526;28;20277;-85
2022/04/20 10:10:48;;;;;;;5.65;3.10;;;;;;;13.32;50.69;101827.84;5075009;28;20028;-85
2022/04/20 10:13:16;;;;;;;12.30;3.15;;;;;;;13.31;50.52;101826.09;5073523;28;20224;-85
2022/04/20 10:18:30;;;;;;;4.57;3.03;;;;;;;13.46;49.31;101825.53;5071865;28;20039;-85
2022/04/20 10:20:59;;;;;;;10.23;3.30;;;;;;;13.51;49.17;101822.75;5070980;28;20347;-85
2022/04/20 10:23:25;;;;;;;7.43;3.13;;;;;;;13.54;49.19;101833.16;5069363;28;20032;-85
2022/04/20 10:25:53;;;;;;;4.65;2.65;;;;;;;13.57;48.53;101822.50;5075545;28;20090;-85
2022/04/20 10:28:33;;;;;;;3.97;2.65;;;;;;;13.60;48.52;101831.13;5070588;28;20059;-85
2022/04/20 10:31:21;;;;;;;4.47;2.80;;;;;;;13.67;48.25;101828.31;5074780;28;20091;-85
2022/04/20 10:33:47;;;;;;;6.07;2.70;;;;;;;13.74;48.65;101828.00;5071522;28;20037;-85
2022/04/20 10:36:15;;;;;;;5.25;2.88;;;;;;;13.84;47.98;101820.59;5052258;28;20071;-85
2022/04/20 10:38:43;;;;;;;3.37;2.23;;;;;;;13.89;47.77;101818.66;5070951;28;20350;-85
2022/04/20 10:41:10;;;;;;;3.70;2.60;;;;;;;13.93;47.53;101817.59;5078301;28;20332;-84
2022/04/20 10:43:44;;;;;;;3.88;2.40;;;;;;;13.96;47.15;101809.59;5077604;28;20048;-85
2022/04/20 10:46:18;;;;;;;4.25;2.63;;;;;;;13.94;46.99;101813.22;5075225;28;20046;-85
2022/04/20 10:48:43;;;;;;;5.05;2.38;;;;;;;13.93;47.88;101799.16;5064061;28;20059;-86
2022/04/20 10:51:18;;;;;;;5.07;2.13;;;;;;;14.00;47.02;101799.78;5073712;28;20095;-85
2022/04/20 10:53:47;;;;;;;2.78;2.50;;;;;;;14.05;47.09;101799.63;5074997;28;20041;-85
2022/04/20 10:56:13;;;;;;;7.72;3.03;;;;;;;14.07;46.48;101798.63;5069254;28;20363;-85
2022/04/20 10:59:07;;;;;;;2.50;2.30;;;;;;;14.08;46.47;101789.81;5070295;28;20032;-85
2022/04/20 11:02:02;;;;;;;6.25;2.80;;;;;;;14.05;47.32;101784.66;5073713;28;20040;-85
2022/04/20 11:04:46;;;;;;;3.22;2.50;;;;;;;14.14;47.21;101786.09;5066584;28;20035;-85
2022/04/20 11:07:18;;;;;;;4.32;2.55;;;;;;;14.11;45.84;101787.03;5068408;28;20055;-86
2022/04/20 11:09:48;;;;;;;3.25;2.95;;;;;;;14.15;46.95;101778.13;5073849;28;20036;-85
2022/04/20 11:18:44;;;;;;;4.00;2.58;;;;;;;14.08;45.87;101775.78;5074602;28;20249;-85
2022/04/20 11:21:11;;;;;;;5.53;2.80;;;;;;;14.04;45.92;101769.78;5074156;28;20060;-85
2022/04/20 11:23:53;;;;;;;5.85;2.72;;;;;;;14.06;46.99;101772.34;5048224;28;20043;-85
2022/04/20 11:26:32;;;;;;;4.28;2.92;;;;;;;14.15;46.69;101770.22;5059960;28;20032;-85
2022/04/20 11:29:00;;;;;;;3.58;3.20;;;;;;;14.15;45.00;101767.59;5068828;28;20094;-85
2022/04/20 11:31:26;;;;;;;;;;;;;;;14.16;46.41;101756.09;5046937;28;20039;-85
2022/04/20 11:33:53;;;;;;;7.20;3.08;;;;;;;14.20;46.34;101757.69;5075542;28;19912;-85
2022/04/20 11:36:19;;;;;;;8.48;3.17;;;;;;;14.22;46.47;101752.38;5055072;28;20139;-85
2022/04/20 11:38:47;;;;;;;4.28;2.90;;;;;;;14.24;46.56;101755.78;5062317;28;20028;-85
2022/04/20 11:41:15;;;;;;;4.53;2.93;;;;;;;14.34;46.96;101749.22;5065442;28;20115;-85
2022/04/20 11:43:41;;;;;;;4.47;2.88;;;;;;;14.36;46.79;101751.78;5076176;28;20055;-85
2022/04/20 11:46:08;;;;;;;4.20;2.92;;;;;;;14.42;46.40;101748.88;5048150;28;20029;-85
2022/04/20 11:48:57;;;;;;;5.78;2.67;;;;;;;14.49;45.89;101742.44;5059279;28;20400;-85
2022/04/20 11:51:28;;;;;;;6.32;2.85;;;;;;;14.54;45.25;101739.63;5057004;28;20032;-85
2022/04/20 11:53:55;;;;;;;4.25;3.10;;;;;;;14.58;45.91;101738.59;5058789;28;20048;-85
2022/04/20 11:56:40;;;;;;;3.08;2.88;;;;;;;14.63;45.49;101733.97;5077123;28;20216;-85
2022/04/20 11:59:08;;;;;;;3.47;3.08;;;;;;;14.66;45.45;101727.72;5063397;28;20036;-85
2022/04/20 12:01:38;;;;;;;3.93;2.80;;;;;;;14.69;45.67;101728.44;5060280;28;20078;-85
2022/04/20 12:04:19;;;;;;;4.80;2.65;;;;;;;14.70;45.70;101726.66;5077005;28;20012;-85
2022/04/20 12:06:45;;;;;;;4.75;2.60;;;;;;;14.70;45.80;101727.53;5076373;28;20100;-85